Oldenburg, Indiana
Current Conditions -  °F | °C
As of 1:55 AM on Monday 24 Nov 2014 (Local Time) from KI67 Reporting Station
Overcast Overcast  
Wind Chill: 59°   Ceiling: 1900
Heat Index: 59°   Visibility: 10mi
Dew Point: 54°   Wind: 14mph
Humidity: 82%   Direction: 220°SW
Pressure: 29.3"   Gusts: 21mph
Location:  39.34°N, 85.2°W
Report Text: KI67 240655Z AUTO 22012G18KT 10SM OVC019 15/12 A2930 RMK AO1
Loading
Personal Weather Stations






























Interactive Weather Map New forecast layout! Learn more

10-Day Weather Forecast

Advertisements
Track Severe Weather on mobile